createdAt,value
2018-07-31T00:01:48.436Z,50.52
2018-07-31T00:04:52.020Z,51.09
2018-07-31T00:07:55.568Z,51.09
2018-07-31T00:10:59.279Z,51.06
2018-07-31T00:14:03.094Z,51.90
2018-07-31T00:17:06.709Z,52.28
2018-07-31T00:20:10.488Z,52.25
2018-07-31T00:23:14.257Z,52.70
2018-07-31T00:26:17.931Z,53.26
2018-07-31T00:29:21.591Z,53.95
2018-07-31T00:32:25.182Z,53.72
2018-07-31T00:35:28.715Z,53.18
2018-07-31T00:38:32.281Z,53.04
2018-07-31T00:41:36.048Z,52.19
2018-07-31T00:44:39.674Z,52.32
2018-07-31T00:47:43.385Z,52.00
2018-07-31T00:50:47.135Z,52.43
2018-07-31T00:53:50.845Z,51.81
2018-07-31T00:56:54.620Z,51.81
2018-07-31T00:59:58.347Z,52.08
2018-07-31T01:03:02.012Z,52.27
2018-07-31T01:06:05.652Z,52.33
2018-07-31T01:09:10.305Z,52.14
2018-07-31T01:12:14.056Z,52.44
2018-07-31T01:15:17.794Z,52.48
2018-07-31T01:18:21.475Z,52.68
2018-07-31T01:21:25.162Z,53.26
2018-07-31T01:24:28.842Z,53.52
2018-07-31T01:27:32.655Z,53.48
2018-07-31T01:30:36.419Z,53.38
2018-07-31T01:33:40.094Z,53.37
2018-07-31T01:36:43.737Z,53.55
2018-07-31T01:39:47.445Z,53.68
2018-07-31T01:42:51.016Z,53.91
2018-07-31T01:45:54.621Z,53.67
2018-07-31T01:48:58.421Z,53.89
2018-07-31T01:52:02.140Z,53.99
2018-07-31T01:55:05.797Z,54.25
2018-07-31T01:58:09.432Z,54.39
2018-07-31T02:01:13.066Z,54.86
2018-07-31T02:04:16.658Z,54.83
2018-07-31T02:07:20.310Z,55.15
2018-07-31T02:10:23.935Z,55.70
2018-07-31T02:13:27.522Z,55.22
2018-07-31T02:16:31.232Z,55.60
2018-07-31T02:19:34.892Z,55.34
2018-07-31T02:22:38.496Z,55.37
2018-07-31T02:25:42.423Z,56.31
2018-07-31T02:28:46.144Z,56.53
2018-07-31T02:31:49.747Z,56.73
2018-07-31T02:34:54.281Z,56.48
2018-07-31T02:37:57.922Z,56.66
2018-07-31T02:41:01.559Z,56.67
2018-07-31T02:44:05.397Z,56.92
2018-07-31T02:47:09.017Z,58.26
2018-07-31T02:50:12.848Z,58.11
2018-07-31T02:53:16.441Z,58.15
2018-07-31T02:56:20.089Z,58.80
2018-07-31T02:59:23.668Z,58.88
2018-07-31T03:02:27.267Z,59.00
2018-07-31T03:05:30.856Z,59.35
2018-07-31T03:08:34.462Z,60.29
2018-07-31T03:11:38.065Z,61.11
2018-07-31T03:14:41.728Z,61.43
2018-07-31T03:17:45.344Z,62.30
2018-07-31T03:20:49.023Z,62.82
2018-07-31T03:23:52.841Z,63.03
2018-07-31T03:26:56.543Z,62.68
2018-07-31T03:30:00.139Z,61.77
2018-07-31T03:33:03.828Z,62.36
2018-07-31T03:36:07.437Z,62.27
2018-07-31T03:39:11.318Z,62.07
2018-07-31T03:42:15.076Z,61.70
2018-07-31T03:45:18.663Z,61.23
2018-07-31T03:48:22.384Z,61.65
2018-07-31T03:51:25.903Z,61.70
2018-07-31T03:54:29.562Z,61.99
2018-07-31T03:57:33.201Z,61.21
2018-07-31T04:00:36.869Z,60.07
2018-07-31T04:03:40.466Z,59.18
2018-07-31T04:06:44.167Z,58.67
2018-07-31T04:09:47.812Z,58.82
2018-07-31T04:12:51.426Z,57.33
2018-07-31T04:15:55.017Z,55.76
2018-07-31T04:18:58.827Z,54.50
2018-07-31T04:22:02.509Z,53.03
2018-07-31T04:25:06.297Z,51.05
2018-07-31T04:28:09.971Z,49.31
2018-07-31T04:31:13.668Z,48.13
2018-07-31T04:34:17.228Z,47.04
2018-07-31T04:37:20.873Z,45.07
2018-07-31T04:40:24.457Z,43.65
2018-07-31T04:43:28.024Z,44.01
2018-07-31T04:46:31.748Z,43.10
2018-07-31T04:49:35.363Z,44.08
2018-07-31T04:52:39.375Z,43.55
2018-07-31T04:55:43.006Z,43.93
2018-07-31T04:58:46.644Z,43.31
2018-07-31T05:01:50.233Z,45.99
2018-07-31T05:04:53.907Z,48.62
2018-07-31T05:07:57.559Z,48.61
2018-07-31T05:11:01.247Z,46.59
2018-07-31T05:14:05.539Z,43.76
2018-07-31T05:17:10.214Z,47.93
2018-07-31T05:20:13.872Z,49.40
2018-07-31T05:23:17.716Z,49.68
2018-07-31T05:26:21.384Z,52.51
2018-07-31T05:29:25.015Z,53.65
2018-07-31T05:32:28.711Z,52.52
2018-07-31T05:35:32.398Z,49.48
2018-07-31T05:38:36.103Z,53.40
2018-07-31T05:41:39.679Z,57.89
2018-07-31T05:44:43.365Z,55.04
2018-07-31T05:47:47.020Z,55.09
2018-07-31T05:50:50.613Z,53.28
2018-07-31T05:53:54.286Z,52.91
2018-07-31T05:56:57.937Z,50.53
2018-07-31T06:00:01.688Z,47.18
2018-07-31T06:03:05.614Z,45.82
2018-07-31T06:06:09.455Z,50.42
2018-07-31T06:09:14.233Z,44.08
2018-07-31T06:12:17.904Z,46.23
2018-07-31T06:15:21.748Z,48.71
2018-07-31T06:18:25.596Z,52.99
2018-07-31T06:21:29.223Z,54.57
2018-07-31T06:24:33.220Z,52.16
2018-07-31T06:27:38.300Z,48.61
2018-07-31T06:30:42.315Z,50.10
2018-07-31T06:33:47.025Z,45.20
2018-07-31T06:36:50.629Z,44.66
2018-07-31T06:39:54.453Z,47.80
2018-07-31T06:42:58.234Z,48.61
2018-07-31T06:46:01.784Z,49.93
2018-07-31T06:49:05.470Z,49.97
2018-07-31T06:52:09.080Z,49.74
2018-07-31T06:55:12.718Z,49.79
2018-07-31T06:58:16.435Z,49.44
2018-07-31T07:01:19.949Z,49.69
2018-07-31T07:04:23.536Z,51.67
2018-07-31T07:07:27.080Z,52.37
2018-07-31T07:10:31.978Z,52.65
2018-07-31T07:13:35.610Z,52.11
2018-07-31T07:16:39.264Z,53.46
2018-07-31T07:19:42.955Z,54.05
2018-07-31T07:22:46.556Z,53.11
2018-07-31T07:25:50.331Z,52.99
2018-07-31T07:28:54.051Z,53.20
2018-07-31T07:31:57.760Z,53.44
2018-07-31T07:35:01.475Z,53.42
2018-07-31T07:38:05.089Z,52.40
2018-07-31T07:41:08.914Z,52.55
2018-07-31T07:44:12.576Z,51.93
2018-07-31T07:47:16.151Z,50.28
2018-07-31T07:50:19.895Z,50.12
2018-07-31T07:53:23.566Z,51.17
2018-07-31T07:56:27.480Z,52.19
2018-07-31T07:59:31.174Z,52.04
2018-07-31T08:02:35.133Z,52.42
2018-07-31T08:05:38.859Z,52.72
2018-07-31T08:08:42.444Z,51.70
2018-07-31T08:11:46.063Z,50.88
2018-07-31T08:14:49.731Z,53.52
2018-07-31T08:17:53.614Z,54.58
2018-07-31T08:20:57.185Z,53.86
2018-07-31T08:24:00.961Z,54.28
2018-07-31T08:27:04.630Z,55.15
2018-07-31T08:30:08.291Z,55.18
2018-07-31T08:33:12.069Z,54.68
2018-07-31T08:36:15.832Z,54.35
2018-07-31T08:39:19.536Z,53.02
2018-07-31T08:42:23.175Z,51.96
2018-07-31T08:45:26.722Z,50.88
2018-07-31T08:48:30.505Z,51.23
2018-07-31T08:51:34.166Z,51.47
2018-07-31T08:54:37.912Z,51.44
2018-07-31T08:57:41.592Z,51.00
2018-07-31T09:00:45.196Z,50.16
2018-07-31T09:03:48.860Z,49.27
2018-07-31T09:06:52.614Z,48.11
2018-07-31T09:09:56.306Z,49.67
2018-07-31T09:12:59.991Z,47.91
2018-07-31T09:16:03.839Z,49.06
2018-07-31T09:19:07.734Z,47.66
2018-07-31T09:22:11.714Z,46.90
2018-07-31T09:25:15.544Z,45.62
2018-07-31T09:28:19.535Z,44.99
2018-07-31T09:31:24.057Z,45.00
2018-07-31T09:34:27.851Z,44.98
2018-07-31T09:37:31.632Z,44.65
2018-07-31T09:40:35.239Z,45.43
2018-07-31T09:43:38.817Z,45.54
2018-07-31T09:46:42.476Z,43.40
2018-07-31T09:49:46.099Z,42.82
2018-07-31T09:52:49.756Z,41.39
2018-07-31T09:55:53.421Z,40.60
2018-07-31T09:58:57.628Z,40.50
2018-07-31T10:02:01.868Z,40.41
2018-07-31T10:05:05.955Z,40.01
2018-07-31T10:08:09.573Z,40.42
2018-07-31T10:11:13.259Z,39.56
2018-07-31T10:14:17.476Z,38.64
2018-07-31T10:17:21.962Z,37.55
2018-07-31T10:20:26.208Z,37.45
2018-07-31T10:23:29.987Z,36.66
2018-07-31T10:26:33.677Z,36.52
2018-07-31T10:29:37.596Z,35.75
2018-07-31T10:32:41.333Z,35.11
2018-07-31T10:35:45.076Z,35.46
2018-07-31T10:38:48.715Z,36.85
2018-07-31T10:41:52.450Z,35.78
2018-07-31T10:44:56.225Z,36.51
2018-07-31T10:47:59.877Z,35.43
2018-07-31T10:51:03.912Z,33.52
2018-07-31T10:54:07.553Z,33.77
2018-07-31T10:57:11.665Z,34.14
2018-07-31T11:00:15.545Z,34.87
2018-07-31T11:03:19.262Z,33.30
2018-07-31T11:06:23.891Z,33.45
2018-07-31T11:09:27.461Z,33.01
2018-07-31T11:12:31.292Z,33.85
2018-07-31T11:15:34.903Z,33.32
2018-07-31T11:18:38.728Z,30.27
2018-07-31T11:21:42.498Z,32.91
2018-07-31T11:24:46.466Z,31.49
2018-07-31T11:27:50.174Z,32.86
2018-07-31T11:30:53.784Z,31.53
2018-07-31T11:33:57.469Z,31.62
2018-07-31T11:37:01.181Z,31.75
2018-07-31T11:40:05.676Z,32.43
2018-07-31T11:43:09.406Z,32.57
2018-07-31T11:46:13.177Z,34.01
2018-07-31T11:49:16.972Z,32.85
2018-07-31T11:52:21.227Z,33.15
2018-07-31T11:55:24.876Z,32.14
2018-07-31T11:58:28.538Z,32.30
2018-07-31T12:01:32.326Z,30.68
2018-07-31T12:04:35.998Z,32.70
2018-07-31T12:07:39.705Z,32.03
2018-07-31T12:10:43.273Z,32.87
2018-07-31T12:13:46.949Z,32.61
2018-07-31T12:16:50.669Z,33.20
2018-07-31T12:19:54.247Z,33.36
2018-07-31T12:22:57.912Z,32.85
2018-07-31T12:26:01.628Z,31.75
2018-07-31T12:29:05.413Z,31.94
2018-07-31T12:32:09.338Z,31.32
2018-07-31T12:35:13.016Z,32.68
2018-07-31T12:38:16.746Z,32.05
2018-07-31T12:41:20.508Z,33.00
2018-07-31T12:44:24.067Z,33.06
2018-07-31T12:47:27.724Z,32.29
2018-07-31T12:50:31.391Z,31.39
2018-07-31T12:53:35.078Z,31.80
2018-07-31T12:56:39.102Z,30.78
2018-07-31T12:59:42.775Z,30.79
2018-07-31T13:02:47.672Z,30.87
2018-07-31T13:05:51.458Z,30.25
2018-07-31T13:08:55.287Z,29.34
2018-07-31T13:11:59.132Z,30.11
2018-07-31T13:15:02.981Z,31.85
2018-07-31T13:18:06.623Z,31.31
2018-07-31T13:21:11.247Z,31.17
2018-07-31T13:24:15.235Z,31.59
2018-07-31T13:27:18.768Z,33.26
2018-07-31T13:30:22.439Z,32.11
2018-07-31T13:33:26.244Z,33.58
2018-07-31T13:36:29.853Z,33.13
2018-07-31T13:39:33.420Z,32.99
2018-07-31T13:42:37.103Z,34.01
2018-07-31T13:45:40.822Z,30.72
2018-07-31T13:48:44.522Z,32.71
2018-07-31T13:51:48.178Z,33.28
2018-07-31T13:54:51.852Z,32.82
2018-07-31T13:57:55.509Z,32.14
2018-07-31T14:00:59.186Z,32.16
2018-07-31T14:04:02.847Z,32.43
2018-07-31T14:07:06.584Z,33.16
2018-07-31T14:10:10.390Z,32.24
2018-07-31T14:13:14.053Z,31.36
2018-07-31T14:16:17.674Z,31.91
2018-07-31T14:19:21.434Z,31.75
2018-07-31T14:22:25.179Z,31.94
2018-07-31T14:25:28.901Z,30.97
2018-07-31T14:28:32.561Z,31.40
2018-07-31T14:31:36.251Z,30.47
2018-07-31T14:34:39.920Z,30.69
2018-07-31T14:37:43.496Z,31.59
2018-07-31T14:40:47.168Z,31.36
2018-07-31T14:43:50.755Z,31.55
2018-07-31T14:46:54.782Z,31.50
2018-07-31T14:49:58.529Z,31.27
2018-07-31T14:53:02.393Z,33.03
2018-07-31T14:56:06.193Z,32.96
2018-07-31T14:59:09.836Z,31.91
2018-07-31T15:02:13.850Z,32.36
2018-07-31T15:05:17.438Z,32.25
2018-07-31T15:08:21.150Z,33.01
2018-07-31T15:11:24.895Z,32.88
2018-07-31T15:14:28.543Z,32.09
2018-07-31T15:17:32.315Z,32.20
2018-07-31T15:20:35.928Z,32.30
2018-07-31T15:23:39.795Z,32.08
2018-07-31T15:26:43.470Z,32.12
2018-07-31T15:29:47.220Z,32.30
2018-07-31T15:32:50.869Z,31.30
2018-07-31T15:35:54.981Z,31.14
2018-07-31T15:38:58.616Z,31.98
2018-07-31T15:42:02.395Z,32.33
2018-07-31T15:45:06.299Z,31.27
2018-07-31T15:48:10.226Z,31.85
2018-07-31T15:51:14.019Z,31.01
2018-07-31T15:54:17.811Z,30.66
2018-07-31T15:57:21.595Z,31.84
2018-07-31T16:00:25.334Z,32.21
2018-07-31T16:03:28.995Z,31.80
2018-07-31T16:06:32.704Z,32.39
2018-07-31T16:09:36.329Z,32.88
2018-07-31T16:12:40.118Z,32.75
2018-07-31T16:15:43.800Z,33.91
2018-07-31T16:18:47.516Z,35.24
2018-07-31T16:21:57.679Z,35.54
2018-07-31T16:25:01.446Z,36.10
2018-07-31T16:28:05.109Z,35.96
2018-07-31T16:31:08.388Z,36.31
2018-07-31T16:34:12.060Z,37.29
2018-07-31T16:37:15.852Z,37.25
2018-07-31T16:40:19.458Z,37.49
2018-07-31T16:43:23.903Z,37.80
2018-07-31T16:46:28.012Z,38.40
2018-07-31T16:49:32.081Z,38.40
2018-07-31T16:52:35.770Z,39.80
2018-07-31T16:55:39.401Z,40.39
2018-07-31T16:58:43.432Z,40.67
2018-07-31T17:01:47.180Z,40.63
2018-07-31T17:04:50.856Z,40.79
2018-07-31T17:07:54.590Z,40.45
2018-07-31T17:10:58.467Z,40.83
2018-07-31T17:14:02.193Z,41.76
2018-07-31T17:17:05.840Z,41.99
2018-07-31T17:20:09.528Z,42.33
2018-07-31T17:23:13.535Z,41.12
2018-07-31T17:26:17.163Z,41.99
2018-07-31T17:29:20.891Z,42.57
2018-07-31T17:32:24.532Z,41.68
2018-07-31T17:35:28.383Z,41.50
2018-07-31T17:38:32.096Z,41.50
2018-07-31T17:41:35.912Z,42.56
2018-07-31T17:44:39.724Z,42.37
2018-07-31T17:47:43.362Z,44.38
2018-07-31T17:50:47.047Z,44.85
2018-07-31T17:53:50.756Z,45.04
2018-07-31T17:56:54.487Z,46.20
2018-07-31T17:59:58.402Z,46.68
2018-07-31T18:03:02.092Z,45.82
2018-07-31T18:06:06.015Z,47.69
2018-07-31T18:09:10.475Z,48.10
2018-07-31T18:12:14.227Z,48.34
2018-07-31T18:15:17.899Z,48.65
2018-07-31T18:18:21.675Z,50.08
2018-07-31T18:21:25.348Z,50.75
2018-07-31T18:24:29.145Z,50.44
2018-07-31T18:27:32.861Z,51.71
2018-07-31T18:30:36.867Z,52.55
2018-07-31T18:33:40.554Z,52.87
2018-07-31T18:36:44.283Z,53.34
2018-07-31T18:39:47.979Z,53.31
2018-07-31T18:42:51.796Z,54.47
2018-07-31T18:45:55.392Z,55.09
2018-07-31T18:48:59.158Z,55.68
2018-07-31T18:52:02.988Z,55.83
2018-07-31T18:55:06.707Z,56.07
2018-07-31T18:58:10.437Z,56.07
2018-07-31T19:01:14.388Z,56.66
2018-07-31T19:04:18.286Z,57.37
2018-07-31T19:07:22.033Z,57.40
2018-07-31T19:10:25.698Z,56.42
2018-07-31T19:13:29.418Z,57.37
2018-07-31T19:16:33.201Z,56.52
2018-07-31T19:19:36.806Z,56.03
2018-07-31T19:22:40.486Z,56.17
2018-07-31T19:25:44.236Z,56.48
2018-07-31T19:28:48.024Z,56.56
2018-07-31T19:31:51.779Z,57.09
2018-07-31T19:34:55.568Z,57.91
2018-07-31T19:37:59.321Z,57.39
2018-07-31T19:41:03.018Z,57.22
2018-07-31T19:44:06.784Z,57.61
2018-07-31T19:47:10.604Z,57.37
2018-07-31T19:50:14.428Z,57.34
2018-07-31T19:53:18.166Z,57.59
2018-07-31T19:56:21.871Z,58.20
2018-07-31T19:59:25.556Z,58.25
2018-07-31T20:02:29.343Z,58.32
2018-07-31T20:05:33.188Z,58.34
2018-07-31T20:08:37.008Z,58.30
2018-07-31T20:11:40.676Z,58.13
2018-07-31T20:14:44.463Z,58.09
2018-07-31T20:17:48.085Z,57.68
2018-07-31T20:20:52.057Z,57.43
2018-07-31T20:23:55.733Z,57.44
2018-07-31T20:26:59.614Z,57.10
2018-07-31T20:30:03.429Z,57.38
2018-07-31T20:33:07.127Z,57.56
2018-07-31T20:36:10.804Z,56.82
2018-07-31T20:39:14.528Z,57.08
2018-07-31T20:42:18.211Z,57.11
2018-07-31T20:45:22.847Z,57.38
2018-07-31T20:48:26.582Z,57.43
2018-07-31T20:51:31.109Z,57.25
2018-07-31T20:54:34.900Z,57.17
2018-07-31T20:57:39.372Z,57.31
2018-07-31T21:00:43.154Z,57.93
2018-07-31T21:03:46.905Z,58.29
2018-07-31T21:06:50.576Z,57.87
2018-07-31T21:09:54.612Z,58.14
2018-07-31T21:12:59.012Z,58.69
2018-07-31T21:16:02.820Z,58.92
2018-07-31T21:19:06.602Z,58.98
2018-07-31T21:22:10.287Z,58.95
2018-07-31T21:25:13.942Z,58.72
2018-07-31T21:28:17.622Z,58.69
2018-07-31T21:31:21.519Z,59.09
2018-07-31T21:34:25.176Z,58.79
2018-07-31T21:37:28.885Z,58.48
2018-07-31T21:40:32.512Z,58.42
2018-07-31T21:43:36.327Z,58.53
2018-07-31T21:46:40.143Z,58.35
2018-07-31T21:49:43.933Z,57.95
2018-07-31T21:52:47.803Z,57.10
2018-07-31T21:55:51.398Z,57.82
2018-07-31T21:58:55.077Z,57.58
2018-07-31T22:01:58.776Z,57.03
2018-07-31T22:05:02.427Z,56.98
2018-07-31T22:08:06.018Z,57.47
2018-07-31T22:11:09.802Z,57.39
2018-07-31T22:14:13.389Z,57.85
2018-07-31T22:17:17.048Z,57.82
2018-07-31T22:20:22.072Z,58.54
2018-07-31T22:23:25.638Z,58.88
2018-07-31T22:26:29.286Z,58.88
2018-07-31T22:29:33.029Z,59.68
2018-07-31T22:32:36.769Z,59.58
2018-07-31T22:35:40.442Z,60.65
2018-07-31T22:38:44.162Z,61.22
2018-07-31T22:41:47.838Z,61.35
2018-07-31T22:44:51.439Z,61.81
2018-07-31T22:47:55.155Z,62.94
2018-07-31T22:50:58.776Z,65.03
2018-07-31T22:54:02.354Z,65.02
2018-07-31T22:57:06.240Z,66.16
2018-07-31T23:00:09.978Z,65.38
2018-07-31T23:03:13.666Z,65.70
2018-07-31T23:06:17.368Z,66.19
2018-07-31T23:09:20.958Z,66.32
2018-07-31T23:12:25.029Z,66.57
2018-07-31T23:15:28.784Z,66.47
2018-07-31T23:18:33.144Z,66.67
2018-07-31T23:21:37.005Z,66.80
2018-07-31T23:24:40.760Z,67.70
2018-07-31T23:27:44.469Z,68.04
2018-07-31T23:30:48.080Z,68.28
2018-07-31T23:33:51.632Z,68.27
2018-07-31T23:36:55.220Z,69.29
2018-07-31T23:39:59.733Z,69.88
2018-07-31T23:43:03.354Z,70.69
2018-07-31T23:46:06.998Z,72.15
2018-07-31T23:49:10.793Z,74.45
2018-07-31T23:52:14.591Z,75.30
2018-07-31T23:55:19.412Z,75.49
2018-07-31T23:58:22.981Z,76.64
